sensor_id;sensor_type;location;lat;lon;timestamp;pressure;altitude;pressure_sealevel;temperature;humidity
67818;BME280;54614;47.576;7.524;2022-12-07T00:01:27;98621.34;;;22.61;35.31
67818;BME280;54614;47.576;7.524;2022-12-07T00:03:57;98615.56;;;22.57;35.52
67818;BME280;54614;47.576;7.524;2022-12-07T00:06:33;98618.03;;;22.59;35.44
67818;BME280;54614;47.576;7.524;2022-12-07T00:08:59;98615.78;;;22.62;34.86
67818;BME280;54614;47.576;7.524;2022-12-07T00:11:25;98619.53;;;22.68;34.90
67818;BME280;54614;47.576;7.524;2022-12-07T00:14:00;98620.78;;;22.72;35.19
67818;BME280;54614;47.576;7.524;2022-12-07T00:16:30;98613.94;;;22.63;35.22
67818;BME280;54614;47.576;7.524;2022-12-07T00:18:56;98618.91;;;22.66;35.17
67818;BME280;54614;47.576;7.524;2022-12-07T00:21:28;98610.03;;;22.65;34.85
67818;BME280;54614;47.576;7.524;2022-12-07T00:23:56;98611.03;;;22.58;35.13
67818;BME280;54614;47.576;7.524;2022-12-07T00:26:29;98610.66;;;22.67;35.04
67818;BME280;54614;47.576;7.524;2022-12-07T00:28:58;98609.84;;;22.67;35.34
67818;BME280;54614;47.576;7.524;2022-12-07T00:31:29;98603.88;;;22.71;34.73
67818;BME280;54614;47.576;7.524;2022-12-07T00:33:56;98606.09;;;22.61;35.08
67818;BME280;54614;47.576;7.524;2022-12-07T00:36:24;98614.13;;;22.61;34.93
67818;BME280;54614;47.576;7.524;2022-12-07T00:38:50;98604.03;;;22.63;35.15
67818;BME280;54614;47.576;7.524;2022-12-07T00:41:22;98605.69;;;22.64;35.11
67818;BME280;54614;47.576;7.524;2022-12-07T00:43:49;98605.88;;;22.63;34.88
67818;BME280;54614;47.576;7.524;2022-12-07T00:46:17;98602.34;;;22.56;35.17
67818;BME280;54614;47.576;7.524;2022-12-07T00:48:43;98594.09;;;22.57;35.17
67818;BME280;54614;47.576;7.524;2022-12-07T00:51:14;98598.03;;;22.61;35.29
67818;BME280;54614;47.576;7.524;2022-12-07T00:53:41;98603.84;;;22.65;34.94
67818;BME280;54614;47.576;7.524;2022-12-07T00:56:13;98591.25;;;22.65;35.00
67818;BME280;54614;47.576;7.524;2022-12-07T00:58:39;98599.06;;;22.60;35.08
67818;BME280;54614;47.576;7.524;2022-12-07T01:01:08;98591.22;;;22.59;35.15
67818;BME280;54614;47.576;7.524;2022-12-07T01:03:34;98589.13;;;22.54;35.24
67818;BME280;54614;47.576;7.524;2022-12-07T01:06:01;98593.72;;;22.60;35.08
67818;BME280;54614;47.576;7.524;2022-12-07T01:08:28;98602.16;;;22.57;35.02
67818;BME280;54614;47.576;7.524;2022-12-07T01:11:07;98597.41;;;22.59;34.85
67818;BME280;54614;47.576;7.524;2022-12-07T01:13:35;98602.97;;;22.58;35.27
67818;BME280;54614;47.576;7.524;2022-12-07T01:16:04;98599.47;;;22.57;35.18
67818;BME280;54614;47.576;7.524;2022-12-07T01:18:34;98594.69;;;22.52;35.05
67818;BME280;54614;47.576;7.524;2022-12-07T01:21:09;98592.25;;;22.58;35.00
67818;BME280;54614;47.576;7.524;2022-12-07T01:23:37;98588.75;;;22.57;34.89
67818;BME280;54614;47.576;7.524;2022-12-07T01:26:08;98589.97;;;22.55;34.91
67818;BME280;54614;47.576;7.524;2022-12-07T01:28:35;98598.63;;;22.57;35.21
67818;BME280;54614;47.576;7.524;2022-12-07T01:33:33;98600.66;;;22.48;35.19
67818;BME280;54614;47.576;7.524;2022-12-07T01:38:48;98596.75;;;22.50;35.01
67818;BME280;54614;47.576;7.524;2022-12-07T01:41:15;98606.06;;;22.55;35.13
67818;BME280;54614;47.576;7.524;2022-12-07T01:44:19;98604.63;;;22.59;35.13
67818;BME280;54614;47.576;7.524;2022-12-07T01:47:01;98600.69;;;22.55;35.09
67818;BME280;54614;47.576;7.524;2022-12-07T01:49:48;98601.53;;;22.55;34.95
67818;BME280;54614;47.576;7.524;2022-12-07T01:52:23;98606.25;;;22.53;34.88
67818;BME280;54614;47.576;7.524;2022-12-07T01:54:57;98609.75;;;22.54;35.19
67818;BME280;54614;47.576;7.524;2022-12-07T01:57:25;98611.41;;;22.55;35.02
67818;BME280;54614;47.576;7.524;2022-12-07T01:59:53;98612.44;;;22.54;35.27
67818;BME280;54614;47.576;7.524;2022-12-07T02:02:30;98606.00;;;22.48;35.12
67818;BME280;54614;47.576;7.524;2022-12-07T02:05:00;98605.44;;;22.52;35.04
67818;BME280;54614;47.576;7.524;2022-12-07T02:07:27;98600.88;;;22.53;34.97
67818;BME280;54614;47.576;7.524;2022-12-07T02:09:54;98595.50;;;22.46;35.10
67818;BME280;54614;47.576;7.524;2022-12-07T02:12:21;98590.97;;;22.47;35.29
67818;BME280;54614;47.576;7.524;2022-12-07T02:14:49;98597.16;;;22.47;35.01
67818;BME280;54614;47.576;7.524;2022-12-07T02:20:51;98586.00;;;22.44;35.07
67818;BME280;54614;47.576;7.524;2022-12-07T02:30:00;98585.38;;;22.42;35.27
67818;BME280;54614;47.576;7.524;2022-12-07T02:35:30;98591.56;;;22.42;35.11
67818;BME280;54614;47.576;7.524;2022-12-07T02:38:16;98586.59;;;22.39;35.17
67818;BME280;54614;47.576;7.524;2022-12-07T02:40:53;98587.03;;;22.43;35.08
67818;BME280;54614;47.576;7.524;2022-12-07T02:43:27;98591.75;;;22.41;35.24
67818;BME280;54614;47.576;7.524;2022-12-07T02:46:04;98593.41;;;22.42;35.33
67818;BME280;54614;47.576;7.524;2022-12-07T02:48:33;98588.63;;;22.37;35.14
67818;BME280;54614;47.576;7.524;2022-12-07T02:50:59;98586.59;;;22.39;34.92
67818;BME280;54614;47.576;7.524;2022-12-07T02:53:38;98584.09;;;22.38;35.27
67818;BME280;54614;47.576;7.524;2022-12-07T03:00:06;98593.84;;;22.45;35.04
67818;BME280;54614;47.576;7.524;2022-12-07T03:03:26;98598.97;;;22.40;35.13
67818;BME280;54614;47.576;7.524;2022-12-07T03:06:22;98592.97;;;22.38;35.22
67818;BME280;54614;47.576;7.524;2022-12-07T03:09:28;98591.31;;;22.37;35.06
67818;BME280;54614;47.576;7.524;2022-12-07T03:12:37;98586.59;;;22.39;34.93
67818;BME280;54614;47.576;7.524;2022-12-07T03:15:55;98585.75;;;22.39;35.20
67818;BME280;54614;47.576;7.524;2022-12-07T03:18:28;98587.56;;;22.32;35.11
67818;BME280;54614;47.576;7.524;2022-12-07T03:21:02;98588.84;;;22.36;34.94
67818;BME280;54614;47.576;7.524;2022-12-07T03:23:34;98583.66;;;22.34;35.13
67818;BME280;54614;47.576;7.524;2022-12-07T03:26:03;98583.22;;;22.31;35.37
67818;BME280;54614;47.576;7.524;2022-12-07T03:28:35;98576.03;;;22.31;35.13
67818;BME280;54614;47.576;7.524;2022-12-07T03:31:14;98579.97;;;22.35;34.88
67818;BME280;54614;47.576;7.524;2022-12-07T03:34:21;98581.25;;;22.46;35.04
67818;BME280;54614;47.576;7.524;2022-12-07T03:37:10;98579.38;;;22.40;35.10
67818;BME280;54614;47.576;7.524;2022-12-07T03:42:56;98588.41;;;22.32;35.24
67818;BME280;54614;47.576;7.524;2022-12-07T03:46:02;98589.66;;;22.36;35.06
67818;BME280;54614;47.576;7.524;2022-12-07T03:48:42;98592.13;;;22.38;34.98
67818;BME280;54614;47.576;7.524;2022-12-07T03:51:24;98586.94;;;22.30;35.22
67818;BME280;54614;47.576;7.524;2022-12-07T03:54:10;98599.31;;;22.31;34.94
67818;BME280;54614;47.576;7.524;2022-12-07T03:56:39;98593.13;;;22.30;35.27
67818;BME280;54614;47.576;7.524;2022-12-07T03:59:07;98591.72;;;22.34;34.88
67818;BME280;54614;47.576;7.524;2022-12-07T04:01:33;98593.13;;;22.30;35.21
67818;BME280;54614;47.576;7.524;2022-12-07T04:03:59;98584.06;;;22.31;34.92
67818;BME280;54614;47.576;7.524;2022-12-07T04:06:25;98588.34;;;22.26;35.24
67818;BME280;54614;47.576;7.524;2022-12-07T04:08:51;98591.47;;;22.29;35.21
67818;BME280;54614;47.576;7.524;2022-12-07T04:11:17;98588.78;;;22.29;35.29
67818;BME280;54614;47.576;7.524;2022-12-07T04:13:42;98590.00;;;22.27;35.13
67818;BME280;54614;47.576;7.524;2022-12-07T04:16:27;98581.53;;;22.23;35.16
67818;BME280;54614;47.576;7.524;2022-12-07T04:18:52;98586.94;;;22.30;35.35
67818;BME280;54614;47.576;7.524;2022-12-07T04:21:18;98589.00;;;22.28;35.27
67818;BME280;54614;47.576;7.524;2022-12-07T04:23:44;98583.44;;;22.29;35.29
67818;BME280;54614;47.576;7.524;2022-12-07T04:26:10;98578.19;;;22.14;35.71
67818;BME280;54614;47.576;7.524;2022-12-07T04:28:36;98573.06;;;22.19;35.33
67818;BME280;54614;47.576;7.524;2022-12-07T04:31:01;98576.63;;;22.27;35.15
67818;BME280;54614;47.576;7.524;2022-12-07T04:33:27;98576.66;;;22.33;35.14
67818;BME280;54614;47.576;7.524;2022-12-07T04:35:53;98571.09;;;22.35;35.03
67818;BME280;54614;47.576;7.524;2022-12-07T04:38:19;98568.41;;;22.35;35.01
67818;BME280;54614;47.576;7.524;2022-12-07T04:40:45;98565.09;;;22.33;34.99
67818;BME280;54614;47.576;7.524;2022-12-07T04:43:11;98561.81;;;22.31;35.15
67818;BME280;54614;47.576;7.524;2022-12-07T04:45:36;98561.56;;;22.26;35.01
67818;BME280;54614;47.576;7.524;2022-12-07T04:48:02;98557.63;;;22.22;35.07
67818;BME280;54614;47.576;7.524;2022-12-07T04:50:28;98554.91;;;22.15;35.28
67818;BME280;54614;47.576;7.524;2022-12-07T04:52:54;98560.34;;;22.28;35.30
67818;BME280;54614;47.576;7.524;2022-12-07T04:55:20;98553.31;;;22.27;35.00
67818;BME280;54614;47.576;7.524;2022-12-07T04:57:46;98559.72;;;22.26;35.12
67818;BME280;54614;47.576;7.524;2022-12-07T05:00:12;98554.97;;;22.28;35.33
67818;BME280;54614;47.576;7.524;2022-12-07T05:02:38;98565.50;;;22.30;35.25
67818;BME280;54614;47.576;7.524;2022-12-07T05:05:04;98571.06;;;22.28;35.20
67818;BME280;54614;47.576;7.524;2022-12-07T05:07:30;98556.78;;;22.21;35.04
67818;BME280;54614;47.576;7.524;2022-12-07T05:09:55;98564.25;;;22.26;35.17
67818;BME280;54614;47.576;7.524;2022-12-07T05:12:21;98561.28;;;22.14;34.61
67818;BME280;54614;47.576;7.524;2022-12-07T05:14:47;98565.38;;;22.10;35.38
67818;BME280;54614;47.576;7.524;2022-12-07T05:17:13;98558.31;;;22.02;35.59
67818;BME280;54614;47.576;7.524;2022-12-07T05:19:39;98561.94;;;21.95;35.49
67818;BME280;54614;47.576;7.524;2022-12-07T05:22:05;98563.56;;;21.89;35.19
67818;BME280;54614;47.576;7.524;2022-12-07T05:24:31;98562.78;;;21.95;34.92
67818;BME280;54614;47.576;7.524;2022-12-07T05:26:57;98563.59;;;21.96;34.77
67818;BME280;54614;47.576;7.524;2022-12-07T05:29:23;98561.31;;;21.93;34.96
67818;BME280;54614;47.576;7.524;2022-12-07T05:31:48;98555.13;;;21.92;35.08
67818;BME280;54614;47.576;7.524;2022-12-07T05:34:14;98553.00;;;22.09;35.27
67818;BME280;54614;47.576;7.524;2022-12-07T05:36:40;98556.94;;;22.13;35.16
67818;BME280;54614;47.576;7.524;2022-12-07T05:39:06;98556.41;;;22.24;35.29
67818;BME280;54614;47.576;7.524;2022-12-07T05:41:32;98552.94;;;22.30;35.21
67818;BME280;54614;47.576;7.524;2022-12-07T05:44:17;98561.47;;;22.47;35.10
67818;BME280;54614;47.576;7.524;2022-12-07T05:46:46;98551.19;;;22.50;35.11
67818;BME280;54614;47.576;7.524;2022-12-07T05:49:11;98558.63;;;22.55;35.33
67818;BME280;54614;47.576;7.524;2022-12-07T05:51:37;98558.66;;;22.62;35.16
67818;BME280;54614;47.576;7.524;2022-12-07T05:54:03;98546.53;;;22.72;34.84
67818;BME280;54614;47.576;7.524;2022-12-07T05:56:29;98558.50;;;22.70;35.06
67818;BME280;54614;47.576;7.524;2022-12-07T05:58:55;98561.59;;;22.73;35.12
67818;BME280;54614;47.576;7.524;2022-12-07T06:01:40;98559.41;;;22.83;35.14
67818;BME280;54614;47.576;7.524;2022-12-07T06:04:06;98567.88;;;22.87;34.96
67818;BME280;54614;47.576;7.524;2022-12-07T06:06:32;98566.41;;;22.85;35.43
67818;BME280;54614;47.576;7.524;2022-12-07T06:08:58;98565.19;;;22.87;35.21
67818;BME280;54614;47.576;7.524;2022-12-07T06:11:24;98563.34;;;22.88;35.10
67818;BME280;54614;47.576;7.524;2022-12-07T06:14:08;98566.22;;;22.86;35.36
67818;BME280;54614;47.576;7.524;2022-12-07T06:16:34;98573.25;;;22.94;35.08
67818;BME280;54614;47.576;7.524;2022-12-07T06:19:00;98561.94;;;22.98;35.18
67818;BME280;54614;47.576;7.524;2022-12-07T06:21:26;98563.56;;;22.93;35.23
67818;BME280;54614;47.576;7.524;2022-12-07T06:23:53;98565.66;;;23.04;35.52
67818;BME280;54614;47.576;7.524;2022-12-07T06:26:19;98563.00;;;23.10;35.69
67818;BME280;54614;47.576;7.524;2022-12-07T06:28:45;98563.44;;;23.21;35.68
67818;BME280;54614;47.576;7.524;2022-12-07T06:31:11;98561.81;;;23.33;37.80
67818;BME280;54614;47.576;7.524;2022-12-07T06:33:37;98560.00;;;23.60;36.84
67818;BME280;54614;47.576;7.524;2022-12-07T06:36:03;98554.84;;;23.65;35.93
67818;BME280;54614;47.576;7.524;2022-12-07T06:38:29;98552.31;;;23.50;35.97
67818;BME280;54614;47.576;7.524;2022-12-07T06:40:54;98557.50;;;23.52;35.82
67818;BME280;54614;47.576;7.524;2022-12-07T06:43:20;98562.50;;;23.74;36.71
67818;BME280;54614;47.576;7.524;2022-12-07T06:45:47;98559.38;;;23.91;36.95
67818;BME280;54614;47.576;7.524;2022-12-07T06:48:12;98564.75;;;23.91;36.64
67818;BME280;54614;47.576;7.524;2022-12-07T06:50:38;98555.88;;;23.90;36.13
67818;BME280;54614;47.576;7.524;2022-12-07T06:53:04;98560.00;;;23.99;36.05
67818;BME280;54614;47.576;7.524;2022-12-07T06:55:30;98550.28;;;23.98;35.78
67818;BME280;54614;47.576;7.524;2022-12-07T06:57:56;98562.88;;;24.04;35.80
67818;BME280;54614;47.576;7.524;2022-12-07T07:00:22;98558.53;;;24.10;35.65
67818;BME280;54614;47.576;7.524;2022-12-07T07:02:48;98557.50;;;24.11;35.69
67818;BME280;54614;47.576;7.524;2022-12-07T07:05:13;98551.06;;;24.19;35.37
67818;BME280;54614;47.576;7.524;2022-12-07T07:07:39;98555.22;;;24.15;35.61
67818;BME280;54614;47.576;7.524;2022-12-07T07:10:06;98555.22;;;24.21;35.25
67818;BME280;54614;47.576;7.524;2022-12-07T07:12:32;98563.88;;;24.23;35.38
67818;BME280;54614;47.576;7.524;2022-12-07T07:14:58;98569.06;;;24.31;35.19
67818;BME280;54614;47.576;7.524;2022-12-07T07:17:23;98564.72;;;24.30;35.15
67818;BME280;54614;47.576;7.524;2022-12-07T07:19:49;98569.06;;;24.25;34.83
67818;BME280;54614;47.576;7.524;2022-12-07T07:22:15;98569.25;;;24.36;34.96
67818;BME280;54614;47.576;7.524;2022-12-07T07:24:41;98566.38;;;24.31;35.01
67818;BME280;54614;47.576;7.524;2022-12-07T07:27:07;98570.50;;;24.40;34.89
67818;BME280;54614;47.576;7.524;2022-12-07T07:29:32;98566.97;;;24.40;34.64
67818;BME280;54614;47.576;7.524;2022-12-07T07:31:59;98568.22;;;24.44;34.59
67818;BME280;54614;47.576;7.524;2022-12-07T07:34:25;98565.53;;;24.44;34.68
67818;BME280;54614;47.576;7.524;2022-12-07T07:36:51;98569.47;;;24.41;34.82
67818;BME280;54614;47.576;7.524;2022-12-07T07:39:17;98574.44;;;24.38;34.72
67818;BME280;54614;47.576;7.524;2022-12-07T07:41:43;98573.38;;;24.46;34.41
67818;BME280;54614;47.576;7.524;2022-12-07T07:44:09;98578.13;;;24.50;34.42
67818;BME280;54614;47.576;7.524;2022-12-07T07:46:35;98578.75;;;24.52;34.31
67818;BME280;54614;47.576;7.524;2022-12-07T07:49:01;98580.59;;;24.52;34.44
67818;BME280;54614;47.576;7.524;2022-12-07T07:51:27;98580.41;;;24.47;34.42
67818;BME280;54614;47.576;7.524;2022-12-07T07:53:53;98577.50;;;24.48;34.04
67818;BME280;54614;47.576;7.524;2022-12-07T07:56:19;98582.28;;;24.20;34.21
67818;BME280;54614;47.576;7.524;2022-12-07T07:58:45;98578.97;;;24.24;34.75
67818;BME280;54614;47.576;7.524;2022-12-07T08:01:11;98587.25;;;24.16;34.37
67818;BME280;54614;47.576;7.524;2022-12-07T08:03:39;98582.53;;;23.98;34.18
67818;BME280;54614;47.576;7.524;2022-12-07T08:06:05;98586.66;;;23.94;34.35
67818;BME280;54614;47.576;7.524;2022-12-07T08:08:31;98589.75;;;23.98;34.30
67818;BME280;54614;47.576;7.524;2022-12-07T08:10:57;98587.28;;;23.96;33.89
67818;BME280;54614;47.576;7.524;2022-12-07T08:13:27;98587.28;;;23.90;33.92
67818;BME280;54614;47.576;7.524;2022-12-07T08:15:53;98596.16;;;23.84;34.04
67818;BME280;54614;47.576;7.524;2022-12-07T08:18:19;98595.75;;;24.00;42.03
67818;BME280;54614;47.576;7.524;2022-12-07T08:20:45;98602.13;;;24.25;40.91
67818;BME280;54614;47.576;7.524;2022-12-07T08:23:11;98611.47;;;24.29;40.81
67818;BME280;54614;47.576;7.524;2022-12-07T08:25:37;98611.44;;;24.36;40.26
67818;BME280;54614;47.576;7.524;2022-12-07T08:28:06;98611.25;;;24.37;39.88
67818;BME280;54614;47.576;7.524;2022-12-07T08:30:32;98611.44;;;24.36;38.76
67818;BME280;54614;47.576;7.524;2022-12-07T08:32:58;98611.84;;;24.39;37.76
67818;BME280;54614;47.576;7.524;2022-12-07T08:35:25;98611.84;;;24.39;37.21
67818;BME280;54614;47.576;7.524;2022-12-07T08:37:51;98618.88;;;24.40;36.36
67818;BME280;54614;47.576;7.524;2022-12-07T08:40:17;98621.38;;;24.42;36.45
67818;BME280;54614;47.576;7.524;2022-12-07T08:42:51;98623.25;;;24.35;35.96
67818;BME280;54614;47.576;7.524;2022-12-07T08:45:19;98622.22;;;24.36;35.82
67818;BME280;54614;47.576;7.524;2022-12-07T08:47:57;98618.47;;;24.24;35.57
67818;BME280;54614;47.576;7.524;2022-12-07T08:50:27;98621.78;;;24.26;35.46
67818;BME280;54614;47.576;7.524;2022-12-07T08:52:57;98627.16;;;24.26;35.52
67818;BME280;54614;47.576;7.524;2022-12-07T08:55:24;98628.81;;;24.20;35.07
67818;BME280;54614;47.576;7.524;2022-12-07T08:57:51;98625.91;;;24.15;35.40
67818;BME280;54614;47.576;7.524;2022-12-07T09:00:17;98626.75;;;24.09;35.00
67818;BME280;54614;47.576;7.524;2022-12-07T09:02:44;98628.19;;;24.05;35.07
67818;BME280;54614;47.576;7.524;2022-12-07T09:05:11;98642.03;;;23.89;35.57
67818;BME280;54614;47.576;7.524;2022-12-07T09:07:41;98630.88;;;24.11;34.70
67818;BME280;54614;47.576;7.524;2022-12-07T09:10:09;98639.34;;;24.22;35.01
67818;BME280;54614;47.576;7.524;2022-12-07T09:12:35;98640.59;;;24.19;34.88
67818;BME280;54614;47.576;7.524;2022-12-07T09:15:01;98636.47;;;24.23;35.25
67818;BME280;54614;47.576;7.524;2022-12-07T09:17:32;98646.59;;;24.21;34.89
67818;BME280;54614;47.576;7.524;2022-12-07T09:19:58;98652.38;;;24.18;34.74
67818;BME280;54614;47.576;7.524;2022-12-07T09:22:24;98644.53;;;24.10;35.09
67818;BME280;54614;47.576;7.524;2022-12-07T09:24:50;98650.53;;;23.99;35.35
67818;BME280;54614;47.576;7.524;2022-12-07T09:27:15;98653.81;;;23.94;35.21
67818;BME280;54614;47.576;7.524;2022-12-07T09:29:43;98651.75;;;24.03;34.57
67818;BME280;54614;47.576;7.524;2022-12-07T09:32:09;98644.94;;;23.94;34.17
67818;BME280;54614;47.576;7.524;2022-12-07T09:34:35;98658.78;;;23.84;34.29
67818;BME280;54614;47.576;7.524;2022-12-07T09:37:01;98654.66;;;23.88;34.34
67818;BME280;54614;47.576;7.524;2022-12-07T09:39:29;98655.25;;;23.84;34.13
67818;BME280;54614;47.576;7.524;2022-12-07T09:41:57;98659.59;;;23.85;34.00
67818;BME280;54614;47.576;7.524;2022-12-07T09:44:26;98649.06;;;23.76;34.25
67818;BME280;54614;47.576;7.524;2022-12-07T09:46:53;98648.63;;;23.73;33.88
67818;BME280;54614;47.576;7.524;2022-12-07T09:49:24;98649.03;;;23.70;33.96
67818;BME280;54614;47.576;7.524;2022-12-07T09:52:20;98650.28;;;23.74;34.31
67818;BME280;54614;47.576;7.524;2022-12-07T09:54:51;98647.19;;;23.70;34.28
67818;BME280;54614;47.576;7.524;2022-12-07T09:57:22;98643.69;;;23.76;34.40
67818;BME280;54614;47.576;7.524;2022-12-07T09:59:51;98642.22;;;23.74;34.20
67818;BME280;54614;47.576;7.524;2022-12-07T10:02:38;98634.78;;;23.76;33.90
67818;BME280;54614;47.576;7.524;2022-12-07T10:05:23;98635.41;;;23.65;34.07
67818;BME280;54614;47.576;7.524;2022-12-07T10:07:51;98634.59;;;23.71;33.99
67818;BME280;54614;47.576;7.524;2022-12-07T10:10:32;98633.94;;;23.62;34.06
67818;BME280;54614;47.576;7.524;2022-12-07T10:13:06;98628.16;;;23.59;33.97
67818;BME280;54614;47.576;7.524;2022-12-07T10:15:56;98624.06;;;23.76;34.31
67818;BME280;54614;47.576;7.524;2022-12-07T10:23:35;98610.19;;;23.66;34.36
67818;BME280;54614;47.576;7.524;2022-12-07T10:28:56;98597.00;;;23.91;33.82
67818;BME280;54614;47.576;7.524;2022-12-07T10:31:24;98593.06;;;23.93;33.70
67818;BME280;54614;47.576;7.524;2022-12-07T10:34:00;98595.75;;;23.87;33.48
67818;BME280;54614;47.576;7.524;2022-12-07T10:39:22;98600.69;;;23.63;33.33
67818;BME280;54614;47.576;7.524;2022-12-07T10:41:59;98602.34;;;23.58;33.62
67818;BME280;54614;47.576;7.524;2022-12-07T10:44:33;98599.44;;;23.59;33.93
67818;BME280;54614;47.576;7.524;2022-12-07T10:47:34;98591.63;;;23.64;33.80
67818;BME280;54614;47.576;7.524;2022-12-07T10:51:08;98578.41;;;23.76;33.90
67818;BME280;54614;47.576;7.524;2022-12-07T11:21:18;98546.59;;;23.66;33.85
67818;BME280;54614;47.576;7.524;2022-12-07T11:29:52;98541.22;;;23.66;34.26
67818;BME280;54614;47.576;7.524;2022-12-07T11:33:04;98531.28;;;23.80;34.04
67818;BME280;54614;47.576;7.524;2022-12-07T11:41:02;98513.50;;;23.86;33.61
67818;BME280;54614;47.576;7.524;2022-12-07T11:44:01;98516.19;;;23.86;34.25
67818;BME280;54614;47.576;7.524;2022-12-07T11:47:06;98505.88;;;23.89;34.00
67818;BME280;54614;47.576;7.524;2022-12-07T11:50:14;98503.19;;;23.83;33.58
67818;BME280;54614;47.576;7.524;2022-12-07T11:56:11;98495.97;;;23.76;33.93
67818;BME280;54614;47.576;7.524;2022-12-07T11:59:10;98495.75;;;23.78;34.08
67818;BME280;54614;47.576;7.524;2022-12-07T12:06:43;98497.81;;;23.76;34.12
67818;BME280;54614;47.576;7.524;2022-12-07T12:09:19;98494.94;;;23.77;33.78
67818;BME280;54614;47.576;7.524;2022-12-07T12:18:06;98477.59;;;23.60;33.98
67818;BME280;54614;47.576;7.524;2022-12-07T12:23:27;98472.84;;;23.56;33.83
67818;BME280;54614;47.576;7.524;2022-12-07T12:26:06;98461.88;;;23.51;34.10
67818;BME280;54614;47.576;7.524;2022-12-07T12:33:53;98462.53;;;23.59;34.01
67818;BME280;54614;47.576;7.524;2022-12-07T12:36:43;98459.84;;;23.59;33.84
67818;BME280;54614;47.576;7.524;2022-12-07T12:39:15;98457.34;;;23.64;33.67
67818;BME280;54614;47.576;7.524;2022-12-07T12:46:53;98457.75;;;23.68;33.37
67818;BME280;54614;47.576;7.524;2022-12-07T12:51:56;98445.97;;;23.75;33.11
67818;BME280;54614;47.576;7.524;2022-12-07T12:54:35;98442.47;;;23.75;33.55
67818;BME280;54614;47.576;7.524;2022-12-07T12:57:28;98437.09;;;23.75;33.42
67818;BME280;54614;47.576;7.524;2022-12-07T13:02:27;98431.94;;;23.73;33.46
67818;BME280;54614;47.576;7.524;2022-12-07T13:16:40;98428.00;;;23.69;33.36
67818;BME280;54614;47.576;7.524;2022-12-07T13:18:41;98434.22;;;23.63;33.16
67818;BME280;54614;47.576;7.524;2022-12-07T13:26:39;98422.44;;;23.71;33.37
67818;BME280;54614;47.576;7.524;2022-12-07T13:31:54;98425.31;;;23.69;33.02
67818;BME280;54614;47.576;7.524;2022-12-07T13:34:37;98420.34;;;23.73;33.20
67818;BME280;54614;47.576;7.524;2022-12-07T13:37:30;98413.13;;;23.73;33.31
67818;BME280;54614;47.576;7.524;2022-12-07T13:40:01;98412.72;;;23.76;33.23
67818;BME280;54614;47.576;7.524;2022-12-07T13:42:40;98417.84;;;23.85;33.56
67818;BME280;54614;47.576;7.524;2022-12-07T13:45:35;98410.59;;;23.92;33.50
67818;BME280;54614;47.576;7.524;2022-12-07T13:48:43;98410.63;;;23.85;33.83
67818;BME280;54614;47.576;7.524;2022-12-07T13:51:20;98399.88;;;23.85;33.69
67818;BME280;54614;47.576;7.524;2022-12-07T13:53:53;98399.88;;;23.85;33.93
67818;BME280;54614;47.576;7.524;2022-12-07T13:56:24;98399.88;;;23.85;33.67
67818;BME280;54614;47.576;7.524;2022-12-07T13:58:52;98399.47;;;23.82;33.70
67818;BME280;54614;47.576;7.524;2022-12-07T14:01:18;98397.22;;;23.72;33.53
67818;BME280;54614;47.576;7.524;2022-12-07T14:03:44;98400.34;;;23.62;34.02
67818;BME280;54614;47.576;7.524;2022-12-07T14:06:23;98396.22;;;23.66;33.96
67818;BME280;54614;47.576;7.524;2022-12-07T14:09:09;98397.63;;;23.82;33.65
67818;BME280;54614;47.576;7.524;2022-12-07T14:11:42;98395.34;;;23.79;34.23
67818;BME280;54614;47.576;7.524;2022-12-07T14:14:18;98395.34;;;23.79;34.34
67818;BME280;54614;47.576;7.524;2022-12-07T14:16:56;98391.81;;;23.85;34.13
67818;BME280;54614;47.576;7.524;2022-12-07T14:25:18;98388.75;;;23.68;34.08
67818;BME280;54614;47.576;7.524;2022-12-07T14:27:57;98390.03;;;23.59;34.00
67818;BME280;54614;47.576;7.524;2022-12-07T14:30:32;98392.50;;;23.54;34.39
67818;BME280;54614;47.576;7.524;2022-12-07T14:33:03;98388.78;;;23.62;34.36
67818;BME280;54614;47.576;7.524;2022-12-07T14:35:31;98387.13;;;23.67;34.01
67818;BME280;54614;47.576;7.524;2022-12-07T14:37:58;98381.31;;;23.70;34.28
67818;BME280;54614;47.576;7.524;2022-12-07T14:40:30;98381.13;;;23.72;34.35
67818;BME280;54614;47.576;7.524;2022-12-07T14:45:27;98383.59;;;23.73;34.20
67818;BME280;54614;47.576;7.524;2022-12-07T14:47:53;98378.44;;;23.65;34.57
67818;BME280;54614;47.576;7.524;2022-12-07T14:50:21;98383.00;;;23.65;34.28
67818;BME280;54614;47.576;7.524;2022-12-07T14:52:56;98374.72;;;23.66;34.10
67818;BME280;54614;47.576;7.524;2022-12-07T14:55:29;98376.19;;;23.56;33.84
67818;BME280;54614;47.576;7.524;2022-12-07T14:57:56;98382.38;;;23.50;34.44
67818;BME280;54614;47.576;7.524;2022-12-07T15:00:25;98376.59;;;23.59;34.59
67818;BME280;54614;47.576;7.524;2022-12-07T15:02:52;98383.84;;;23.59;34.66
67818;BME280;54614;47.576;7.524;2022-12-07T15:05:19;98389.63;;;23.56;34.86
67818;BME280;54614;47.576;7.524;2022-12-07T15:07:45;98386.72;;;23.64;34.50
67818;BME280;54614;47.576;7.524;2022-12-07T15:10:28;98381.34;;;23.64;34.36
67818;BME280;54614;47.576;7.524;2022-12-07T15:12:59;98382.78;;;23.60;34.50
67818;BME280;54614;47.576;7.524;2022-12-07T15:15:47;98374.53;;;23.61;34.61
67818;BME280;54614;47.576;7.524;2022-12-07T15:18:13;98386.09;;;23.62;34.43
67818;BME280;54614;47.576;7.524;2022-12-07T15:20:39;98386.72;;;23.57;34.24
67818;BME280;54614;47.576;7.524;2022-12-07T15:23:05;98380.53;;;23.43;34.09
67818;BME280;54614;47.576;7.524;2022-12-07T15:25:31;98381.34;;;23.44;34.75
67818;BME280;54614;47.576;7.524;2022-12-07T15:27:57;98380.09;;;23.53;34.68
67818;BME280;54614;47.576;7.524;2022-12-07T15:30:23;98384.63;;;23.53;34.70
67818;BME280;54614;47.576;7.524;2022-12-07T15:32:53;98382.78;;;23.53;34.72
67818;BME280;54614;47.576;7.524;2022-12-07T15:35:20;98374.75;;;23.46;34.74
67818;BME280;54614;47.576;7.524;2022-12-07T15:37:46;98381.94;;;23.53;34.73
67818;BME280;54614;47.576;7.524;2022-12-07T15:40:14;98377.63;;;23.52;34.96